createdAt,value
2018-03-28T00:00:05.397Z,16.80
2018-03-28T00:00:37.138Z,16.70
2018-03-28T00:01:10.343Z,16.80
2018-03-28T00:01:42.087Z,16.80
2018-03-28T00:02:13.847Z,16.70
2018-03-28T00:02:45.657Z,16.80
2018-03-28T00:03:18.220Z,16.80
2018-03-28T00:03:50.687Z,16.70
2018-03-28T00:04:22.430Z,16.70
2018-03-28T00:04:54.386Z,16.80
2018-03-28T00:05:26.139Z,16.70
2018-03-28T00:05:57.878Z,16.70
2018-03-28T00:06:29.644Z,16.70
2018-03-28T00:07:01.385Z,16.80
2018-03-28T00:07:33.125Z,16.70
2018-03-28T00:08:04.866Z,16.80
2018-03-28T00:08:36.615Z,16.80
2018-03-28T00:09:09.131Z,16.70
2018-03-28T00:09:41.074Z,16.70
2018-03-28T00:10:13.578Z,16.70
2018-03-28T00:10:46.098Z,16.70
2018-03-28T00:11:17.849Z,16.80
2018-03-28T00:11:49.742Z,16.80
2018-03-28T00:12:22.263Z,16.70
2018-03-28T00:12:54.008Z,16.80
2018-03-28T00:13:25.757Z,16.80
2018-03-28T00:13:57.496Z,16.70
2018-03-28T00:14:29.240Z,16.70
2018-03-28T00:15:00.986Z,16.70
2018-03-28T00:15:32.737Z,16.70
2018-03-28T00:16:04.482Z,16.70
2018-03-28T00:16:36.227Z,16.70
2018-03-28T00:17:08.018Z,16.70
2018-03-28T00:17:39.758Z,16.70
2018-03-28T00:18:11.486Z,16.70
2018-03-28T00:18:43.248Z,16.70
2018-03-28T00:19:15.195Z,16.70
2018-03-28T00:19:46.927Z,16.70
2018-03-28T00:20:19.434Z,16.70
2018-03-28T00:20:51.188Z,16.70
2018-03-28T00:21:22.936Z,16.70
2018-03-28T00:21:54.697Z,16.70
2018-03-28T00:22:26.437Z,16.70
2018-03-28T00:22:58.156Z,16.70
2018-03-28T00:23:29.903Z,16.70
2018-03-28T00:24:01.640Z,16.70
2018-03-28T00:24:33.394Z,16.70
2018-03-28T00:25:05.162Z,16.70
2018-03-28T00:25:36.896Z,16.80
2018-03-28T00:26:08.630Z,16.70
2018-03-28T00:26:40.445Z,16.70
2018-03-28T00:27:12.940Z,16.70
2018-03-28T00:27:44.666Z,16.70
2018-03-28T00:28:16.420Z,16.70
2018-03-28T00:28:48.190Z,16.70
2018-03-28T00:29:19.915Z,16.70
2018-03-28T00:29:51.832Z,16.70
2018-03-28T00:30:23.575Z,16.70
2018-03-28T00:30:55.312Z,16.70
2018-03-28T00:31:27.254Z,16.70
2018-03-28T00:31:59.755Z,16.70
2018-03-28T00:32:31.516Z,16.70
2018-03-28T00:33:03.264Z,16.70
2018-03-28T00:33:35.000Z,16.70
2018-03-28T00:34:06.758Z,16.70
2018-03-28T00:34:38.523Z,16.70
2018-03-28T00:35:10.235Z,16.60
2018-03-28T00:35:41.978Z,16.70
2018-03-28T00:36:13.721Z,16.70
2018-03-28T00:36:45.455Z,16.60
2018-03-28T00:37:17.233Z,16.70
2018-03-28T00:37:48.983Z,16.70
2018-03-28T00:38:20.710Z,16.70
2018-03-28T00:38:53.977Z,16.60
2018-03-28T00:39:25.710Z,16.60
2018-03-28T00:39:57.504Z,16.60
2018-03-28T00:40:29.237Z,16.60
2018-03-28T00:41:00.964Z,16.60
2018-03-28T00:41:32.705Z,16.60
2018-03-28T00:42:04.504Z,16.60
2018-03-28T00:42:37.027Z,16.60
2018-03-28T00:43:08.776Z,16.60
2018-03-28T00:43:40.516Z,16.60
2018-03-28T00:44:12.347Z,16.60
2018-03-28T00:44:44.815Z,16.60
2018-03-28T00:45:16.626Z,16.60
2018-03-28T00:45:49.147Z,16.60
2018-03-28T00:46:20.890Z,16.60
2018-03-28T00:46:52.621Z,16.60
2018-03-28T00:47:24.369Z,16.60
2018-03-28T00:47:56.117Z,16.60
2018-03-28T00:48:27.843Z,16.60
2018-03-28T00:48:59.582Z,16.60
2018-03-28T00:49:31.400Z,16.60
2018-03-28T00:50:03.146Z,16.60
2018-03-28T00:50:34.891Z,16.60
2018-03-28T00:51:06.646Z,16.60
2018-03-28T00:51:38.422Z,16.60
2018-03-28T00:52:10.146Z,16.60
2018-03-28T00:52:41.879Z,16.60
2018-03-28T00:53:13.621Z,16.60
2018-03-28T00:53:45.348Z,16.60
2018-03-28T00:54:17.858Z,16.50
2018-03-28T00:54:49.590Z,16.50
2018-03-28T00:55:21.360Z,16.60
2018-03-28T00:55:53.097Z,16.60
2018-03-28T00:56:24.834Z,16.50
2018-03-28T00:56:56.572Z,16.60
2018-03-28T00:57:28.326Z,16.60
2018-03-28T00:58:00.052Z,16.60
2018-03-28T00:58:31.819Z,16.60
2018-03-28T00:59:03.572Z,16.60
2018-03-28T00:59:35.319Z,16.60
2018-03-28T01:00:07.066Z,16.60
2018-03-28T01:00:38.844Z,16.60
2018-03-28T01:01:11.343Z,16.60
2018-03-28T01:01:43.073Z,16.60
2018-03-28T01:02:14.826Z,16.60
2018-03-28T01:02:46.646Z,16.60
2018-03-28T01:03:18.383Z,16.60
2018-03-28T01:03:50.915Z,16.60
2018-03-28T01:04:23.061Z,16.60
2018-03-28T01:04:55.102Z,16.60
2018-03-28T01:05:27.081Z,16.60
2018-03-28T01:05:58.791Z,16.60
2018-03-28T01:06:30.524Z,16.60
2018-03-28T01:07:02.273Z,16.60
2018-03-28T01:07:34.008Z,16.60
2018-03-28T01:08:05.809Z,16.60
2018-03-28T01:08:38.346Z,16.60
2018-03-28T01:09:10.069Z,16.60
2018-03-28T01:09:41.803Z,16.60
2018-03-28T01:10:13.567Z,16.60
2018-03-28T01:10:45.297Z,16.60
2018-03-28T01:11:17.033Z,16.60
2018-03-28T01:11:48.775Z,16.60
2018-03-28T01:12:20.519Z,16.50
2018-03-28T01:12:52.262Z,16.60
2018-03-28T01:13:24.010Z,16.60
2018-03-28T01:13:55.755Z,16.60
2018-03-28T01:14:27.498Z,16.60
2018-03-28T01:14:59.250Z,16.60
2018-03-28T01:15:30.980Z,16.60
2018-03-28T01:16:02.721Z,16.50
2018-03-28T01:16:35.220Z,16.50
2018-03-28T01:17:06.979Z,16.50
2018-03-28T01:17:38.742Z,16.50
2018-03-28T01:18:10.527Z,16.50
2018-03-28T01:18:43.209Z,16.50
2018-03-28T01:19:14.950Z,16.50
2018-03-28T01:19:46.695Z,16.40
2018-03-28T01:20:18.432Z,16.50
2018-03-28T01:20:50.169Z,16.50
2018-03-28T01:21:21.913Z,16.50
2018-03-28T01:21:53.882Z,16.50
2018-03-28T01:22:25.597Z,16.40
2018-03-28T01:22:57.331Z,16.40
2018-03-28T01:23:29.264Z,16.40
2018-03-28T01:24:01.021Z,16.50
2018-03-28T01:24:33.544Z,16.50
2018-03-28T01:25:05.280Z,16.50
2018-03-28T01:25:37.029Z,16.50
2018-03-28T01:26:08.796Z,16.50
2018-03-28T01:26:40.597Z,16.50
2018-03-28T01:27:13.272Z,16.50
2018-03-28T01:27:45.053Z,16.50
2018-03-28T01:28:16.778Z,16.50
2018-03-28T01:28:48.519Z,16.50
2018-03-28T01:29:20.281Z,16.50
2018-03-28T01:29:52.008Z,16.50
2018-03-28T01:30:23.747Z,16.50
2018-03-28T01:30:55.495Z,16.50
2018-03-28T01:31:27.264Z,16.50
2018-03-28T01:31:59.004Z,16.50
2018-03-28T01:32:30.752Z,16.50
2018-03-28T01:33:02.496Z,16.50
2018-03-28T01:33:34.237Z,16.50
2018-03-28T01:34:05.971Z,16.50
2018-03-28T01:34:37.736Z,16.50
2018-03-28T01:35:09.505Z,16.50
2018-03-28T01:35:42.002Z,16.50
2018-03-28T01:36:13.740Z,16.50
2018-03-28T01:36:45.499Z,16.50
2018-03-28T01:37:17.236Z,16.50
2018-03-28T01:37:48.987Z,16.50
2018-03-28T01:38:20.731Z,16.40
2018-03-28T01:38:52.489Z,16.50
2018-03-28T01:39:24.245Z,16.50
2018-03-28T01:39:55.991Z,16.40
2018-03-28T01:40:27.729Z,16.40
2018-03-28T01:40:59.490Z,16.50
2018-03-28T01:41:31.218Z,16.40
2018-03-28T01:42:02.953Z,16.40
2018-03-28T01:42:34.736Z,16.40
2018-03-28T01:43:07.232Z,16.40
2018-03-28T01:43:38.983Z,16.40
2018-03-28T01:44:10.718Z,16.40
2018-03-28T01:44:42.456Z,16.40
2018-03-28T01:45:14.193Z,16.40
2018-03-28T01:45:45.932Z,16.40
2018-03-28T01:46:17.668Z,16.40
2018-03-28T01:46:50.205Z,16.40
2018-03-28T01:47:21.952Z,16.40
2018-03-28T01:47:53.683Z,16.40
2018-03-28T01:48:25.435Z,16.40
2018-03-28T01:48:57.934Z,16.40
2018-03-28T01:49:29.678Z,16.40
2018-03-28T01:50:01.442Z,16.40
2018-03-28T01:50:33.169Z,16.40
2018-03-28T01:51:04.903Z,16.40
2018-03-28T01:51:37.392Z,16.40
2018-03-28T01:52:09.151Z,16.40
2018-03-28T01:52:40.952Z,16.40
2018-03-28T01:53:13.450Z,16.40
2018-03-28T01:53:45.196Z,16.40
2018-03-28T01:54:16.945Z,16.40
2018-03-28T01:54:48.939Z,16.40
2018-03-28T01:55:20.683Z,16.40
2018-03-28T01:55:53.184Z,16.30
2018-03-28T01:56:24.941Z,16.30
2018-03-28T01:56:56.696Z,16.40
2018-03-28T01:57:28.432Z,16.40
2018-03-28T01:58:00.172Z,16.40
2018-03-28T01:58:31.913Z,16.40
2018-03-28T01:59:03.643Z,16.40
2018-03-28T01:59:35.684Z,16.40
2018-03-28T02:00:08.190Z,16.40
2018-03-28T02:00:39.937Z,16.40
2018-03-28T02:01:11.684Z,16.40
2018-03-28T02:01:43.430Z,16.40
2018-03-28T02:02:15.185Z,16.40
2018-03-28T02:02:46.923Z,16.40
2018-03-28T02:03:18.666Z,16.40
2018-03-28T02:03:50.401Z,16.40
2018-03-28T02:04:22.153Z,16.40
2018-03-28T02:04:53.901Z,16.40
2018-03-28T02:05:25.628Z,16.40
2018-03-28T02:05:57.374Z,16.50
2018-03-28T02:06:29.115Z,16.40
2018-03-28T02:07:00.860Z,16.40
2018-03-28T02:07:32.611Z,16.40
2018-03-28T02:08:04.335Z,16.40
2018-03-28T02:08:36.084Z,16.40
2018-03-28T02:09:07.823Z,16.40
2018-03-28T02:09:39.551Z,16.40
2018-03-28T02:10:11.293Z,16.40
2018-03-28T02:10:43.029Z,16.40
2018-03-28T02:11:15.551Z,16.40
2018-03-28T02:11:47.283Z,16.40
2018-03-28T02:12:19.056Z,16.40
2018-03-28T02:12:50.805Z,16.40
2018-03-28T02:13:22.727Z,16.40
2018-03-28T02:13:54.468Z,16.40
2018-03-28T02:14:26.203Z,16.40
2018-03-28T02:14:57.959Z,16.40
2018-03-28T02:15:29.737Z,16.30
2018-03-28T02:16:01.459Z,16.40
2018-03-28T02:16:33.200Z,16.40
2018-03-28T02:17:04.946Z,16.40
2018-03-28T02:17:36.707Z,16.40
2018-03-28T02:18:08.645Z,16.40
2018-03-28T02:18:40.388Z,16.40
2018-03-28T02:19:12.131Z,16.40
2018-03-28T02:19:43.864Z,16.40
2018-03-28T02:20:15.613Z,16.40
2018-03-28T02:20:47.353Z,16.40
2018-03-28T02:21:19.097Z,16.40
2018-03-28T02:21:50.839Z,16.40
2018-03-28T02:22:22.593Z,16.40
2018-03-28T02:22:54.312Z,16.40
2018-03-28T02:23:26.059Z,16.40
2018-03-28T02:23:57.821Z,16.50
2018-03-28T02:24:29.766Z,16.40
2018-03-28T02:25:01.495Z,16.40
2018-03-28T02:25:33.276Z,16.40
2018-03-28T02:26:05.029Z,16.40
2018-03-28T02:26:36.788Z,16.40
2018-03-28T02:27:09.287Z,16.40
2018-03-28T02:27:41.109Z,16.40
2018-03-28T02:28:12.892Z,16.40
2018-03-28T02:28:44.651Z,16.40
2018-03-28T02:29:16.392Z,16.40
2018-03-28T02:29:48.137Z,16.40
2018-03-28T02:30:19.914Z,16.40
2018-03-28T02:30:51.641Z,16.40
2018-03-28T02:31:23.385Z,16.30
2018-03-28T02:31:55.127Z,16.30
2018-03-28T02:32:26.892Z,16.30
2018-03-28T02:32:58.623Z,16.30
2018-03-28T02:33:30.368Z,16.30
2018-03-28T02:34:02.115Z,16.30
2018-03-28T02:34:33.850Z,16.30
2018-03-28T02:35:05.595Z,16.30
2018-03-28T02:35:37.345Z,16.30
2018-03-28T02:36:09.088Z,16.30
2018-03-28T02:36:40.831Z,16.30
2018-03-28T02:37:12.567Z,16.40
2018-03-28T02:37:44.310Z,16.40
2018-03-28T02:38:16.044Z,16.40
2018-03-28T02:38:47.819Z,16.40
2018-03-28T02:39:20.342Z,16.40
2018-03-28T02:39:52.095Z,16.40
2018-03-28T02:40:24.047Z,16.40
2018-03-28T02:40:55.818Z,16.40
2018-03-28T02:41:27.573Z,16.40
2018-03-28T02:41:59.304Z,16.40
2018-03-28T02:42:31.062Z,16.40
2018-03-28T02:43:03.570Z,16.40
2018-03-28T02:43:35.364Z,16.40
2018-03-28T02:44:07.325Z,16.40
2018-03-28T02:44:39.824Z,16.40
2018-03-28T02:45:11.565Z,16.40
2018-03-28T02:45:43.299Z,16.40
2018-03-28T02:46:15.042Z,16.40
2018-03-28T02:46:46.777Z,16.40
2018-03-28T02:47:18.584Z,16.40
2018-03-28T02:47:50.351Z,16.30
2018-03-28T02:48:22.870Z,16.40
2018-03-28T02:48:54.616Z,16.40
2018-03-28T02:49:26.360Z,16.40
2018-03-28T02:49:58.107Z,16.40
2018-03-28T02:50:30.052Z,16.40
2018-03-28T02:51:01.812Z,16.40
2018-03-28T02:51:33.552Z,16.40
2018-03-28T02:52:05.291Z,16.40
2018-03-28T02:52:37.034Z,16.40
2018-03-28T02:53:08.975Z,16.40
2018-03-28T02:53:40.792Z,16.40
2018-03-28T02:54:12.547Z,16.40
2018-03-28T02:54:44.295Z,16.40
2018-03-28T02:55:16.022Z,16.40
2018-03-28T02:55:47.780Z,16.40
2018-03-28T02:56:19.529Z,16.40
2018-03-28T02:56:51.495Z,16.40
2018-03-28T02:57:23.235Z,16.40
2018-03-28T02:57:54.996Z,16.40
2018-03-28T02:58:26.743Z,16.40
2018-03-28T02:58:58.500Z,16.40
2018-03-28T02:59:30.230Z,16.30
2018-03-28T03:00:02.190Z,16.40
2018-03-28T03:00:33.929Z,16.40
2018-03-28T03:01:05.677Z,16.40
2018-03-28T03:01:37.415Z,16.40
2018-03-28T03:02:09.182Z,16.40
2018-03-28T03:02:40.944Z,16.40
2018-03-28T03:03:12.690Z,16.40
2018-03-28T03:03:45.209Z,16.40
2018-03-28T03:04:16.990Z,16.40
2018-03-28T03:04:48.701Z,16.40
2018-03-28T03:05:20.427Z,16.40
2018-03-28T03:05:52.192Z,16.40
2018-03-28T03:06:23.932Z,16.40
2018-03-28T03:06:55.676Z,16.40
2018-03-28T03:07:27.442Z,16.40
2018-03-28T03:07:59.161Z,16.40
2018-03-28T03:08:30.903Z,16.40
2018-03-28T03:09:02.644Z,16.40
2018-03-28T03:09:34.403Z,16.40
2018-03-28T03:10:06.156Z,16.40
2018-03-28T03:10:38.300Z,16.40
2018-03-28T03:11:10.051Z,16.40
2018-03-28T03:11:41.769Z,16.40
2018-03-28T03:12:13.516Z,16.40
2018-03-28T03:12:45.267Z,16.40
2018-03-28T03:13:17.007Z,16.40
2018-03-28T03:13:48.750Z,16.40
2018-03-28T03:14:20.503Z,16.40
2018-03-28T03:14:52.236Z,16.40
2018-03-28T03:15:23.971Z,16.40
2018-03-28T03:15:55.724Z,16.40
2018-03-28T03:16:27.447Z,16.40
2018-03-28T03:16:59.183Z,16.40
2018-03-28T03:17:30.927Z,16.40
2018-03-28T03:18:02.693Z,16.40
2018-03-28T03:18:34.439Z,16.40
2018-03-28T03:19:06.172Z,16.40
2018-03-28T03:19:37.929Z,16.40
2018-03-28T03:20:09.691Z,16.40
2018-03-28T03:20:41.428Z,16.40
2018-03-28T03:21:13.178Z,16.40
2018-03-28T03:21:44.938Z,16.40
2018-03-28T03:22:18.205Z,16.40
2018-03-28T03:22:49.969Z,16.40
2018-03-28T03:23:21.714Z,16.50
2018-03-28T03:23:53.453Z,16.40
2018-03-28T03:24:25.216Z,16.50
2018-03-28T03:24:57.736Z,16.40
2018-03-28T03:25:29.479Z,16.50
2018-03-28T03:26:01.231Z,16.40
2018-03-28T03:26:33.154Z,16.40
2018-03-28T03:27:04.898Z,16.40
2018-03-28T03:27:36.640Z,16.40
2018-03-28T03:28:08.379Z,16.40
2018-03-28T03:28:40.144Z,16.40
2018-03-28T03:29:11.861Z,16.40
2018-03-28T03:29:43.589Z,16.40
2018-03-28T03:30:16.102Z,16.40
2018-03-28T03:30:47.857Z,16.40
2018-03-28T03:31:19.600Z,16.40
2018-03-28T03:31:51.336Z,16.40
2018-03-28T03:32:23.075Z,16.40
2018-03-28T03:32:54.831Z,16.40
2018-03-28T03:33:26.562Z,16.40
2018-03-28T03:33:58.301Z,16.40
2018-03-28T03:34:30.055Z,16.50
2018-03-28T03:35:01.801Z,16.40
2018-03-28T03:35:33.545Z,16.40
2018-03-28T03:36:05.298Z,16.50
2018-03-28T03:36:37.031Z,16.50
2018-03-28T03:37:08.823Z,16.40
2018-03-28T03:37:40.732Z,16.50
2018-03-28T03:38:12.473Z,16.50
2018-03-28T03:38:44.228Z,16.50
2018-03-28T03:39:15.960Z,16.50
2018-03-28T03:39:47.726Z,16.50
2018-03-28T03:40:19.448Z,16.40
2018-03-28T03:40:51.196Z,16.50
2018-03-28T03:41:22.938Z,16.40
2018-03-28T03:41:54.672Z,16.40
2018-03-28T03:42:26.411Z,16.40
2018-03-28T03:42:58.165Z,16.40
2018-03-28T03:43:29.913Z,16.40
2018-03-28T03:44:01.667Z,16.40
2018-03-28T03:44:33.403Z,16.40
2018-03-28T03:45:05.147Z,16.40
2018-03-28T03:45:37.107Z,16.40
2018-03-28T03:46:08.839Z,16.40
2018-03-28T03:46:40.587Z,16.40
2018-03-28T03:47:12.327Z,16.40
2018-03-28T03:47:44.069Z,16.40
2018-03-28T03:48:15.791Z,16.40
2018-03-28T03:48:47.532Z,16.40
2018-03-28T03:49:19.269Z,16.40
2018-03-28T03:49:51.015Z,16.40
2018-03-28T03:50:22.768Z,16.40
2018-03-28T03:50:54.509Z,16.40
2018-03-28T03:51:26.243Z,16.40
2018-03-28T03:51:58.006Z,16.40
2018-03-28T03:52:29.745Z,16.50
2018-03-28T03:53:01.476Z,16.50
2018-03-28T03:53:33.234Z,16.40
2018-03-28T03:54:05.732Z,16.50
2018-03-28T03:54:37.464Z,16.40
2018-03-28T03:55:09.215Z,16.50
2018-03-28T03:55:40.980Z,16.40
2018-03-28T03:56:12.714Z,16.40
2018-03-28T03:56:44.453Z,16.40
2018-03-28T03:57:16.211Z,16.50
2018-03-28T03:57:47.986Z,16.40
2018-03-28T03:58:20.499Z,16.50
2018-03-28T03:58:52.253Z,16.40
2018-03-28T03:59:24.208Z,16.50
2018-03-28T03:59:55.935Z,16.50
2018-03-28T04:00:27.701Z,16.50
2018-03-28T04:00:59.437Z,16.50
2018-03-28T04:01:31.190Z,16.40
2018-03-28T04:02:02.921Z,16.50
2018-03-28T04:02:34.948Z,16.50
2018-03-28T04:03:06.676Z,16.50
2018-03-28T04:03:38.427Z,16.50
2018-03-28T04:04:10.219Z,16.50
2018-03-28T04:04:41.960Z,16.50
2018-03-28T04:05:13.731Z,16.50
2018-03-28T04:05:46.227Z,16.50
2018-03-28T04:06:17.975Z,16.50
2018-03-28T04:06:49.700Z,16.50
2018-03-28T04:07:21.444Z,16.50
2018-03-28T04:07:53.195Z,16.50
2018-03-28T04:08:24.949Z,16.50
2018-03-28T04:08:56.682Z,16.50
2018-03-28T04:09:28.447Z,16.50
2018-03-28T04:10:00.172Z,16.50
2018-03-28T04:10:31.907Z,16.50
2018-03-28T04:11:04.407Z,16.50
2018-03-28T04:11:36.171Z,16.50
2018-03-28T04:12:07.895Z,16.50
2018-03-28T04:12:39.648Z,16.50
2018-03-28T04:13:11.388Z,16.50
2018-03-28T04:13:43.127Z,16.50
2018-03-28T04:14:14.876Z,16.50
2018-03-28T04:14:46.631Z,16.50
2018-03-28T04:15:18.377Z,16.50
2018-03-28T04:15:50.131Z,16.50
2018-03-28T04:16:21.867Z,16.50
2018-03-28T04:16:53.628Z,16.50
2018-03-28T04:17:25.366Z,16.50
2018-03-28T04:17:57.106Z,16.50
2018-03-28T04:18:28.836Z,16.50
2018-03-28T04:19:00.575Z,16.50
2018-03-28T04:19:32.317Z,16.50
2018-03-28T04:20:04.064Z,16.50
2018-03-28T04:20:35.834Z,16.50
2018-03-28T04:21:07.580Z,16.50
2018-03-28T04:21:39.528Z,16.50
2018-03-28T04:22:11.276Z,16.50
2018-03-28T04:22:43.228Z,16.50
2018-03-28T04:23:14.968Z,16.50
2018-03-28T04:23:46.709Z,16.50
2018-03-28T04:24:18.454Z,16.50
2018-03-28T04:24:50.192Z,16.50
2018-03-28T04:25:21.932Z,16.50
2018-03-28T04:25:54.458Z,16.50
2018-03-28T04:26:26.186Z,16.50
2018-03-28T04:26:57.940Z,16.50
2018-03-28T04:27:29.795Z,16.50
2018-03-28T04:28:02.263Z,16.50
2018-03-28T04:28:34.024Z,16.50
2018-03-28T04:29:05.771Z,16.50
2018-03-28T04:29:37.511Z,16.60
2018-03-28T04:30:09.246Z,16.60
2018-03-28T04:30:40.987Z,16.60
2018-03-28T04:31:12.740Z,16.60
2018-03-28T04:31:44.475Z,16.60
2018-03-28T04:32:16.213Z,16.60
2018-03-28T04:32:47.980Z,16.50
2018-03-28T04:33:19.745Z,16.60
2018-03-28T04:33:51.489Z,16.60
2018-03-28T04:34:23.238Z,16.60
2018-03-28T04:34:54.999Z,16.60
2018-03-28T04:35:27.524Z,16.80
2018-03-28T04:35:59.257Z,16.70
2018-03-28T04:36:30.994Z,16.70
2018-03-28T04:37:02.736Z,16.70
2018-03-28T04:37:34.477Z,16.70
2018-03-28T04:38:06.223Z,16.60
2018-03-28T04:38:37.972Z,16.60
2018-03-28T04:39:09.728Z,16.50
2018-03-28T04:39:57.444Z,16.40
2018-03-28T04:40:29.194Z,16.30
2018-03-28T04:41:00.951Z,16.30
2018-03-28T04:41:32.700Z,16.30
2018-03-28T04:42:04.451Z,16.30
2018-03-28T04:42:36.194Z,16.30
2018-03-28T04:43:07.939Z,16.20
2018-03-28T04:43:39.874Z,16.20
2018-03-28T04:44:11.616Z,16.20
2018-03-28T04:44:43.363Z,16.20
2018-03-28T04:45:15.099Z,16.20
2018-03-28T04:45:46.874Z,16.20
2018-03-28T04:46:18.611Z,16.20
2018-03-28T04:46:50.353Z,16.20
2018-03-28T04:47:22.129Z,16.10
2018-03-28T04:47:54.652Z,16.10
2018-03-28T04:48:26.382Z,16.10
2018-03-28T04:48:58.128Z,16.10
2018-03-28T04:49:29.867Z,16.10
2018-03-28T04:50:01.617Z,16.10
2018-03-28T04:50:33.563Z,16.10
2018-03-28T04:51:05.319Z,16.10
2018-03-28T04:51:37.059Z,16.10
2018-03-28T04:52:08.800Z,16.10
2018-03-28T04:52:40.542Z,16.10
2018-03-28T04:53:12.298Z,16.10
2018-03-28T04:53:44.232Z,16.10
2018-03-28T04:54:15.987Z,16.10
2018-03-28T04:54:47.727Z,16.10
2018-03-28T04:55:19.463Z,16.10
2018-03-28T04:55:51.248Z,16.10
2018-03-28T04:56:23.156Z,16.10
2018-03-28T04:56:54.900Z,16.10
2018-03-28T04:57:26.653Z,16.10
2018-03-28T04:57:58.403Z,16.00
2018-03-28T04:58:30.144Z,16.00
2018-03-28T04:59:01.887Z,16.00
2018-03-28T04:59:33.647Z,16.00
2018-03-28T05:00:05.411Z,16.00
2018-03-28T05:00:38.395Z,16.00
2018-03-28T05:01:10.114Z,16.00
2018-03-28T05:01:41.878Z,16.00
2018-03-28T05:02:13.596Z,16.00
2018-03-28T05:02:45.347Z,16.10
2018-03-28T05:03:17.071Z,16.00
2018-03-28T05:03:48.806Z,16.00
2018-03-28T05:04:20.563Z,16.00
2018-03-28T05:04:52.983Z,16.10
2018-03-28T05:05:24.947Z,16.10
2018-03-28T05:05:57.833Z,16.00
2018-03-28T05:06:31.316Z,16.00
2018-03-28T05:07:04.706Z,16.10
2018-03-28T05:07:38.273Z,16.00
2018-03-28T05:08:11.471Z,16.10
2018-03-28T05:08:44.137Z,16.10
2018-03-28T05:09:17.703Z,16.00
2018-03-28T05:09:51.496Z,16.00
2018-03-28T05:10:23.254Z,16.00
2018-03-28T05:10:55.041Z,16.00
2018-03-28T05:11:26.776Z,16.10
2018-03-28T05:11:58.526Z,16.00
2018-03-28T05:12:30.301Z,16.10
2018-03-28T05:13:02.800Z,16.10
2018-03-28T05:13:34.551Z,16.10
2018-03-28T05:14:06.292Z,16.10
2018-03-28T05:14:38.039Z,16.10
2018-03-28T05:15:09.776Z,16.10
2018-03-28T05:15:41.581Z,16.10
2018-03-28T05:16:13.516Z,16.10
2018-03-28T05:16:45.503Z,16.00
2018-03-28T05:17:17.975Z,16.00
2018-03-28T05:17:49.721Z,16.10
2018-03-28T05:18:21.472Z,16.00
2018-03-28T05:18:53.222Z,16.00
2018-03-28T05:19:24.973Z,16.00
2018-03-28T05:19:56.924Z,16.00
2018-03-28T05:20:28.664Z,16.00
2018-03-28T05:21:00.405Z,16.00
2018-03-28T05:21:32.146Z,16.00
2018-03-28T05:22:03.901Z,16.00
2018-03-28T05:22:35.708Z,16.00
2018-03-28T05:23:07.581Z,16.00
2018-03-28T05:23:39.333Z,16.00
2018-03-28T05:24:11.074Z,16.00
2018-03-28T05:24:42.814Z,16.00
2018-03-28T05:25:14.566Z,16.00
2018-03-28T05:25:46.311Z,16.00
2018-03-28T05:26:18.075Z,16.00
2018-03-28T05:26:49.803Z,16.00
2018-03-28T05:27:21.537Z,16.00
2018-03-28T05:27:53.291Z,16.00
2018-03-28T05:28:25.024Z,16.00
2018-03-28T05:28:56.778Z,16.10
2018-03-28T05:29:28.512Z,16.10
2018-03-28T05:30:00.309Z,16.10
2018-03-28T05:30:32.215Z,16.10
2018-03-28T05:31:03.956Z,16.10
2018-03-28T05:31:35.718Z,16.00
2018-03-28T05:32:07.485Z,16.00
2018-03-28T05:32:39.979Z,16.00
2018-03-28T05:33:11.766Z,16.00
2018-03-28T05:33:43.513Z,16.00
2018-03-28T05:34:15.250Z,16.00
2018-03-28T05:34:47.131Z,16.00
2018-03-28T05:35:19.668Z,16.00
2018-03-28T05:35:51.409Z,16.00
2018-03-28T05:36:23.174Z,16.00
2018-03-28T05:36:54.964Z,16.00
2018-03-28T05:37:27.821Z,16.10
2018-03-28T05:37:59.560Z,16.00
2018-03-28T05:38:31.322Z,16.00
2018-03-28T05:39:03.058Z,16.00
2018-03-28T05:39:34.799Z,16.00
2018-03-28T05:40:06.535Z,16.10
2018-03-28T05:40:38.363Z,16.10
2018-03-28T05:41:10.100Z,16.10
2018-03-28T05:41:41.827Z,16.00
2018-03-28T05:42:13.604Z,16.00
2018-03-28T05:42:46.107Z,16.10
2018-03-28T05:43:17.832Z,16.00
2018-03-28T05:43:49.583Z,16.00
2018-03-28T05:44:21.325Z,16.10
2018-03-28T05:44:53.086Z,16.10
2018-03-28T05:45:24.844Z,16.00
2018-03-28T05:45:56.593Z,16.00
2018-03-28T05:46:28.608Z,16.10
2018-03-28T05:47:00.461Z,16.10
2018-03-28T05:47:32.921Z,16.10
2018-03-28T05:48:04.684Z,16.10
2018-03-28T05:48:36.436Z,16.10
2018-03-28T05:49:08.175Z,16.10
2018-03-28T05:49:39.959Z,16.10
2018-03-28T05:50:11.887Z,16.10
2018-03-28T05:50:43.636Z,16.10
2018-03-28T05:51:15.369Z,16.10
2018-03-28T05:51:47.105Z,16.10
2018-03-28T05:52:18.894Z,16.10
2018-03-28T05:52:51.418Z,16.10
2018-03-28T05:53:23.191Z,16.10
2018-03-28T05:53:54.904Z,16.10
2018-03-28T05:54:26.657Z,16.10
2018-03-28T05:54:58.416Z,16.10
2018-03-28T05:55:30.149Z,16.10
2018-03-28T05:56:01.901Z,16.10
2018-03-28T05:56:33.652Z,16.10
2018-03-28T05:57:05.387Z,16.00
2018-03-28T05:57:37.117Z,16.10
2018-03-28T05:58:08.868Z,16.10
2018-03-28T05:58:40.607Z,16.10
2018-03-28T05:59:12.352Z,16.10
2018-03-28T05:59:44.125Z,16.10
2018-03-28T06:00:15.893Z,16.10
2018-03-28T06:00:48.584Z,16.10
2018-03-28T06:01:20.337Z,16.10
2018-03-28T06:01:52.137Z,16.10
2018-03-28T06:02:24.082Z,16.10
2018-03-28T06:02:56.600Z,16.10
2018-03-28T06:03:28.354Z,16.10
2018-03-28T06:04:00.299Z,16.10
2018-03-28T06:04:32.035Z,16.10
2018-03-28T06:05:03.773Z,16.10
2018-03-28T06:05:35.509Z,16.10
2018-03-28T06:06:07.256Z,16.10
2018-03-28T06:06:38.997Z,16.10
2018-03-28T06:07:10.745Z,16.10
2018-03-28T06:07:42.488Z,16.10
2018-03-28T06:08:15.176Z,16.10
2018-03-28T06:08:46.926Z,16.10
2018-03-28T06:09:18.691Z,16.10
2018-03-28T06:09:50.432Z,16.10
2018-03-28T06:10:22.171Z,16.10
2018-03-28T06:10:53.931Z,16.10
2018-03-28T06:11:25.647Z,16.10
2018-03-28T06:11:57.397Z,16.10
2018-03-28T06:12:29.340Z,16.10
2018-03-28T06:13:01.114Z,16.10
2018-03-28T06:13:33.068Z,16.10
2018-03-28T06:14:04.802Z,16.10
2018-03-28T06:14:36.547Z,16.10
2018-03-28T06:15:08.280Z,16.10
2018-03-28T06:15:40.037Z,16.10
2018-03-28T06:16:11.783Z,16.10
2018-03-28T06:16:43.523Z,16.10
2018-03-28T06:17:15.284Z,16.10
2018-03-28T06:17:47.788Z,16.10
2018-03-28T06:18:19.517Z,16.10
2018-03-28T06:18:51.259Z,16.10
2018-03-28T06:19:22.994Z,16.10
2018-03-28T06:19:54.733Z,16.20
2018-03-28T06:20:27.248Z,16.20
2018-03-28T06:20:58.988Z,16.10
2018-03-28T06:21:30.737Z,16.20
2018-03-28T06:22:02.477Z,16.20
2018-03-28T06:22:34.219Z,16.20
2018-03-28T06:23:05.970Z,16.20
2018-03-28T06:23:37.711Z,16.10
2018-03-28T06:24:09.514Z,16.20
2018-03-28T06:24:41.412Z,16.20
2018-03-28T06:25:13.146Z,16.20
2018-03-28T06:25:44.887Z,16.20
2018-03-28T06:26:16.635Z,16.20
2018-03-28T06:26:48.390Z,16.20
2018-03-28T06:27:20.124Z,16.20
2018-03-28T06:27:51.888Z,16.20
2018-03-28T06:28:23.627Z,16.20
2018-03-28T06:28:56.143Z,16.10
2018-03-28T06:29:27.901Z,16.10
2018-03-28T06:29:59.640Z,16.10
2018-03-28T06:30:31.370Z,16.20
2018-03-28T06:31:03.095Z,16.10
2018-03-28T06:31:35.612Z,16.20
2018-03-28T06:32:07.365Z,16.10
2018-03-28T06:32:39.103Z,16.20
2018-03-28T06:33:10.848Z,16.20
2018-03-28T06:33:42.604Z,16.10
2018-03-28T06:34:14.532Z,16.10
2018-03-28T06:34:46.365Z,16.10
2018-03-28T06:35:18.837Z,16.20
2018-03-28T06:35:50.590Z,16.20
2018-03-28T06:36:22.317Z,16.20
2018-03-28T06:36:54.109Z,16.20
2018-03-28T06:37:25.844Z,16.20
2018-03-28T06:37:57.583Z,16.20
2018-03-28T06:38:29.332Z,16.20
2018-03-28T06:39:01.069Z,16.20
2018-03-28T06:39:32.827Z,16.20
2018-03-28T06:40:04.556Z,16.20
2018-03-28T06:40:36.291Z,16.20
2018-03-28T06:41:08.049Z,16.20
2018-03-28T06:41:39.784Z,16.20
2018-03-28T06:42:11.521Z,16.20
2018-03-28T06:42:43.281Z,16.20
2018-03-28T06:43:15.034Z,16.20
2018-03-28T06:43:46.776Z,16.20
2018-03-28T06:44:18.512Z,16.20
2018-03-28T06:44:50.269Z,16.20
2018-03-28T06:45:22.010Z,16.20
2018-03-28T06:45:53.751Z,16.20
2018-03-28T06:46:25.505Z,16.20
2018-03-28T06:46:57.223Z,16.20
2018-03-28T06:47:28.960Z,16.20
2018-03-28T06:48:00.710Z,16.20
2018-03-28T06:48:32.440Z,16.20
2018-03-28T06:49:04.180Z,16.20
2018-03-28T06:49:35.923Z,16.20
2018-03-28T06:50:07.664Z,16.20